Time;durP1;ratioP1;P1;durP2;ratioP2;P2;SDS_P1;SDS_P2;PMS_P1;PMS_P2;Temp;Humidity;BMP_temperature;BMP_pressure;BME280_temperature;BME280_humidity;BME280_pressure;Samples;Min_cycle;Max_cycle;Signal;HPM_P1;HPM_P2
2022/03/16 00:00:43;;;;;;;12.98;7.50;;;8.00;99.90;;;;;;4992319;28;20168;-34
2022/03/16 00:03:09;;;;;;;11.48;6.60;;;8.00;99.90;;;;;;5001774;28;20712;-33
2022/03/16 00:05:34;;;;;;;11.93;6.35;;;8.10;99.90;;;;;;4995093;28;20030;-33
2022/03/16 00:08:00;;;;;;;11.48;7.00;;;8.10;99.90;;;;;;4996869;28;20382;-34
2022/03/16 00:10:25;;;;;;;19.33;7.38;;;8.10;99.90;;;;;;5001907;28;20034;-34
2022/03/16 00:12:51;;;;;;;13.38;6.18;;;8.10;99.90;;;;;;4997900;28;20563;-33
2022/03/16 00:15:17;;;;;;;12.85;7.32;;;8.10;99.90;;;;;;5001227;28;20045;-34
2022/03/16 00:17:42;;;;;;;17.30;7.03;;;8.10;99.90;;;;;;4994229;28;20052;-34
2022/03/16 00:20:09;;;;;;;11.32;6.80;;;8.10;99.90;;;;;;4998231;28;20030;-34
2022/03/16 00:22:34;;;;;;;8.52;6.38;;;8.00;99.90;;;;;;5001656;28;20112;-33
2022/03/16 00:25:01;;;;;;;9.15;6.55;;;8.00;99.90;;;;;;5000511;28;20551;-34
2022/03/16 00:27:27;;;;;;;12.45;6.97;;;8.00;99.90;;;;;;4997856;28;20541;-36
2022/03/16 00:29:53;;;;;;;17.35;7.53;;;8.00;99.90;;;;;;5005533;28;20034;-34
2022/03/16 00:32:18;;;;;;;13.10;7.90;;;8.00;99.90;;;;;;4999559;28;20061;-34
2022/03/16 00:34:44;;;;;;;13.73;6.95;;;8.00;99.90;;;;;;4998931;28;20025;-34
2022/03/16 00:37:10;;;;;;;14.77;8.77;;;8.10;99.90;;;;;;4998471;28;20032;-35
2022/03/16 00:39:35;;;;;;;12.50;7.72;;;8.10;99.90;;;;;;4998241;28;20129;-33
2022/03/16 00:42:03;;;;;;;11.85;7.63;;;8.10;99.90;;;;;;5003102;28;20483;-34
2022/03/16 00:44:28;;;;;;;14.02;8.32;;;8.10;99.90;;;;;;5002977;28;20044;-33
2022/03/16 00:46:54;;;;;;;13.68;7.25;;;8.10;99.90;;;;;;5005487;28;20022;-34
2022/03/16 00:49:20;;;;;;;10.63;7.63;;;8.10;99.90;;;;;;5004919;28;20060;-33
2022/03/16 00:51:45;;;;;;;14.55;8.20;;;8.20;99.90;;;;;;4998239;28;20589;-34
2022/03/16 00:54:11;;;;;;;13.23;7.85;;;8.10;99.90;;;;;;5003973;28;20042;-36
2022/03/16 00:56:37;;;;;;;13.93;8.38;;;8.10;99.90;;;;;;5001095;28;20038;-33
2022/03/16 00:59:02;;;;;;;16.55;9.02;;;8.20;99.90;;;;;;4992737;28;20033;-36
2022/03/16 01:01:28;;;;;;;13.55;8.10;;;8.20;99.90;;;;;;4993128;28;20037;-33
2022/03/16 01:03:56;;;;;;;14.10;7.80;;;8.20;99.90;;;;;;5006837;28;20022;-34
2022/03/16 01:06:22;;;;;;;15.13;8.50;;;8.20;99.90;;;;;;5003013;28;20053;-33
2022/03/16 01:08:47;;;;;;;12.38;8.00;;;8.20;99.90;;;;;;5004439;28;20030;-33
2022/03/16 01:11:13;;;;;;;16.67;8.93;;;8.20;99.90;;;;;;5006802;28;20057;-35
2022/03/16 01:13:41;;;;;;;15.32;8.98;;;8.20;99.90;;;;;;5005524;28;20056;-33
2022/03/16 01:16:06;;;;;;;13.18;7.97;;;8.10;99.90;;;;;;5003299;28;20113;-33
2022/03/16 01:18:32;;;;;;;17.15;8.77;;;8.10;99.90;;;;;;5007784;28;20125;-33
2022/03/16 01:20:57;;;;;;;12.73;7.70;;;8.00;99.90;;;;;;5000589;28;20073;-33
2022/03/16 01:23:23;;;;;;;15.60;8.48;;;8.00;99.90;;;;;;5003823;28;20036;-34
2022/03/16 01:25:49;;;;;;;12.00;7.97;;;8.00;99.90;;;;;;5007364;28;20502;-33
2022/03/16 01:28:15;;;;;;;14.02;8.25;;;8.00;99.90;;;;;;5006864;28;20021;-33
2022/03/16 01:30:43;;;;;;;16.10;8.65;;;8.00;99.90;;;;;;5008573;28;20037;-34
2022/03/16 01:33:08;;;;;;;15.65;8.82;;;8.00;99.90;;;;;;4996232;28;20068;-34
2022/03/16 01:35:34;;;;;;;13.25;8.30;;;8.00;99.90;;;;;;4996965;28;20128;-33
2022/03/16 01:38:00;;;;;;;16.00;8.88;;;8.00;99.90;;;;;;5000718;28;20025;-33
2022/03/16 01:40:25;;;;;;;15.68;9.13;;;8.00;99.90;;;;;;5000603;28;20472;-33
2022/03/16 01:42:51;;;;;;;15.00;9.02;;;8.10;99.90;;;;;;4998899;28;20038;-33
2022/03/16 01:45:17;;;;;;;17.35;9.07;;;8.10;99.90;;;;;;5007183;28;20056;-34
2022/03/16 01:47:42;;;;;;;12.93;8.27;;;8.20;99.90;;;;;;5004630;28;20037;-33
2022/03/16 01:50:09;;;;;;;16.33;8.70;;;8.20;99.90;;;;;;5008934;28;20076;-34
2022/03/16 01:52:36;;;;;;;16.58;8.50;;;8.20;99.90;;;;;;5002341;28;20558;-33
2022/03/16 01:55:05;;;;;;;16.77;8.70;;;8.20;99.90;;;;;;5007375;28;20054;-33
2022/03/16 01:57:33;;;;;;;13.57;8.95;;;8.20;99.90;;;;;;4997118;28;20080;-33
2022/03/16 01:59:59;;;;;;;17.75;8.30;;;8.30;99.90;;;;;;4998624;28;20159;-33
2022/03/16 02:02:25;;;;;;;14.00;8.95;;;8.30;99.90;;;;;;5002885;28;20039;-37
2022/03/16 02:04:51;;;;;;;12.60;8.15;;;8.30;99.90;;;;;;5008087;28;20073;-38
2022/03/16 02:07:16;;;;;;;17.00;8.00;;;8.30;99.90;;;;;;5005681;28;20030;-38
2022/03/16 02:09:42;;;;;;;14.02;8.48;;;8.30;99.90;;;;;;5004132;28;20084;-37
2022/03/16 02:12:11;;;;;;;15.18;7.78;;;8.30;99.90;;;;;;5003715;28;20129;-36
2022/03/16 02:14:37;;;;;;;14.55;7.93;;;8.30;99.90;;;;;;5006672;28;20045;-40
2022/03/16 02:17:03;;;;;;;13.50;7.90;;;8.40;99.90;;;;;;4987044;28;20405;-37
2022/03/16 02:19:28;;;;;;;14.00;8.98;;;8.40;99.90;;;;;;5008191;28;20038;-36
2022/03/16 02:22:02;;;;;;;16.77;8.75;;;8.40;99.90;;;;;;5006240;28;20442;-39
2022/03/16 02:24:29;;;;;;;15.23;9.55;;;8.40;99.90;;;;;;4989886;28;20042;-37
2022/03/16 02:26:56;;;;;;;15.63;8.63;;;8.40;99.90;;;;;;5000000;28;20026;-40
2022/03/16 02:29:21;;;;;;;14.52;8.27;;;8.40;99.90;;;;;;5006633;28;20025;-39
2022/03/16 02:31:47;;;;;;;12.70;8.02;;;8.30;99.90;;;;;;5006861;28;20046;-39
2022/03/16 02:34:13;;;;;;;12.02;7.85;;;8.20;99.90;;;;;;4988897;28;20038;-37
2022/03/16 02:36:39;;;;;;;13.77;8.55;;;8.20;99.90;;;;;;4999558;28;20026;-37
2022/03/16 02:39:04;;;;;;;12.60;8.05;;;8.20;99.90;;;;;;5006627;28;20249;-39
2022/03/16 02:41:30;;;;;;;15.10;9.05;;;8.20;99.90;;;;;;5002122;28;20034;-37
2022/03/16 02:43:56;;;;;;;15.27;8.70;;;8.10;99.90;;;;;;5003186;28;20155;-36
2022/03/16 02:46:22;;;;;;;16.15;9.45;;;8.10;99.90;;;;;;5008802;28;20033;-38
2022/03/16 02:48:48;;;;;;;15.60;9.45;;;7.90;99.90;;;;;;5009240;28;20026;-37
2022/03/16 02:51:14;;;;;;;19.25;10.38;;;7.70;99.90;;;;;;5004208;28;20036;-37
2022/03/16 02:53:39;;;;;;;20.02;11.13;;;7.50;99.90;;;;;;5004764;28;20053;-37
2022/03/16 02:56:05;;;;;;;21.33;11.43;;;7.50;99.90;;;;;;5008838;28;20034;-39
2022/03/16 02:58:31;;;;;;;22.70;12.15;;;7.50;99.90;;;;;;5005219;28;20187;-37
2022/03/16 03:00:57;;;;;;;22.95;12.40;;;7.40;99.90;;;;;;5010658;28;20574;-36
2022/03/16 03:03:22;;;;;;;26.75;12.70;;;7.40;99.90;;;;;;5010538;28;20069;-39
2022/03/16 03:05:48;;;;;;;29.35;13.85;;;7.30;99.90;;;;;;5010722;28;20510;-37
2022/03/16 03:08:14;;;;;;;24.60;13.23;;;7.30;99.90;;;;;;5011138;28;20123;-36
2022/03/16 03:10:40;;;;;;;31.05;13.63;;;7.30;99.90;;;;;;5009596;28;20021;-37
2022/03/16 03:13:06;;;;;;;28.55;13.15;;;7.30;99.90;;;;;;5008351;28;20014;-37
2022/03/16 03:15:31;;;;;;;26.92;13.80;;;7.30;99.90;;;;;;5010310;28;20018;-37
2022/03/16 03:17:57;;;;;;;33.28;14.40;;;7.20;99.90;;;;;;5008358;28;20474;-37
2022/03/16 03:20:23;;;;;;;34.10;14.15;;;7.20;99.90;;;;;;5008701;28;20034;-36
2022/03/16 03:22:48;;;;;;;31.80;14.48;;;7.10;99.90;;;;;;5008959;28;20173;-37
2022/03/16 03:25:15;;;;;;;36.70;16.70;;;7.10;99.90;;;;;;5007290;28;20042;-39
2022/03/16 03:27:41;;;;;;;41.38;17.58;;;7.00;99.90;;;;;;5005862;28;20473;-37
2022/03/16 03:30:08;;;;;;;40.53;15.68;;;6.90;99.90;;;;;;5004774;28;20028;-37
2022/03/16 03:32:33;;;;;;;37.13;17.33;;;6.90;99.90;;;;;;5001573;28;20042;-39
2022/03/16 03:34:59;;;;;;;37.83;16.83;;;6.90;99.90;;;;;;5003713;28;20088;-38
2022/03/16 03:37:30;;;;;;;37.42;17.65;;;6.80;99.90;;;;;;5005446;28;20030;-38
2022/03/16 03:39:57;;;;;;;39.80;17.58;;;6.80;99.90;;;;;;5006960;28;20660;-37
2022/03/16 03:42:23;;;;;;;42.38;17.50;;;6.80;99.90;;;;;;5003497;28;20036;-37
2022/03/16 03:44:48;;;;;;;47.30;18.35;;;6.80;99.90;;;;;;5006530;28;20029;-37
2022/03/16 03:47:14;;;;;;;39.05;15.75;;;6.70;99.90;;;;;;4994881;28;20061;-36
2022/03/16 03:49:42;;;;;;;36.47;16.08;;;6.70;99.90;;;;;;5006524;28;20525;-36
2022/03/16 03:52:08;;;;;;;44.57;18.17;;;6.60;99.90;;;;;;5003420;28;20030;-38
2022/03/16 03:54:34;;;;;;;39.47;15.48;;;6.50;99.90;;;;;;5003672;28;20033;-36
2022/03/16 03:57:01;;;;;;;48.00;17.10;;;6.50;99.90;;;;;;5003021;28;20045;-36
2022/03/16 03:59:26;;;;;;;37.75;16.90;;;6.50;99.90;;;;;;5004719;28;20038;-37
2022/03/16 04:01:52;;;;;;;38.70;16.88;;;6.40;99.90;;;;;;4996940;28;20127;-40
2022/03/16 04:04:19;;;;;;;39.55;14.63;;;6.30;99.90;;;;;;5002652;28;20034;-36
2022/03/16 04:06:45;;;;;;;34.95;15.82;;;6.30;99.90;;;;;;5006303;28;20018;-37
2022/03/16 04:09:11;;;;;;;30.83;14.38;;;6.20;99.90;;;;;;5004328;28;20105;-39
2022/03/16 04:11:38;;;;;;;38.97;14.88;;;6.20;99.90;;;;;;5006116;28;20261;-40
2022/03/16 04:14:05;;;;;;;33.75;14.30;;;6.20;99.90;;;;;;5004106;28;20172;-37
2022/03/16 04:16:30;;;;;;;42.50;16.10;;;6.20;99.90;;;;;;4996000;28;20038;-38
2022/03/16 04:18:56;;;;;;;36.60;15.73;;;6.20;99.90;;;;;;5002192;28;20057;-38
2022/03/16 04:21:22;;;;;;;34.05;14.63;;;6.20;99.90;;;;;;5003552;28;20053;-38
2022/03/16 04:23:49;;;;;;;37.95;15.70;;;6.20;99.90;;;;;;5001817;28;20379;-40
2022/03/16 04:26:15;;;;;;;34.42;13.63;;;6.20;99.90;;;;;;5002713;28;20422;-37
2022/03/16 04:28:41;;;;;;;32.92;14.77;;;6.20;99.90;;;;;;5005157;28;20097;-37
2022/03/16 04:31:07;;;;;;;37.65;15.73;;;6.20;99.90;;;;;;5006270;28;20129;-39
2022/03/16 04:33:32;;;;;;;38.65;15.85;;;6.20;99.90;;;;;;5002344;28;20044;-39
2022/03/16 04:35:58;;;;;;;33.28;15.07;;;6.20;99.90;;;;;;4983720;28;20095;-37
2022/03/16 04:38:24;;;;;;;35.03;15.57;;;6.20;99.90;;;;;;5001658;28;20040;-39
2022/03/16 04:40:49;;;;;;;33.53;15.55;;;6.20;99.90;;;;;;5002531;28;20426;-37
2022/03/16 04:43:15;;;;;;;36.72;16.42;;;6.20;99.90;;;;;;5006727;28;20022;-38
2022/03/16 04:45:41;;;;;;;32.63;15.02;;;6.10;99.90;;;;;;5002974;28;20529;-37
2022/03/16 04:48:08;;;;;;;30.65;14.93;;;6.10;99.90;;;;;;5003520;28;20037;-37
2022/03/16 04:50:43;;;;;;;36.58;15.80;;;6.10;99.90;;;;;;5001228;28;20018;-38
2022/03/16 04:53:09;;;;;;;33.25;15.88;;;6.00;99.90;;;;;;5000463;28;20038;-36
2022/03/16 04:55:36;;;;;;;35.63;16.45;;;6.00;99.90;;;;;;5002219;28;20021;-36
2022/03/16 04:58:03;;;;;;;31.85;14.68;;;6.00;99.90;;;;;;5007239;28;20041;-36
2022/03/16 05:00:29;;;;;;;32.50;13.77;;;6.00;99.90;;;;;;5002414;28;20018;-40
2022/03/16 05:02:54;;;;;;;35.22;15.32;;;5.90;99.90;;;;;;5003507;28;20490;-38
2022/03/16 05:05:20;;;;;;;33.85;15.13;;;5.80;99.90;;;;;;5005563;28;20022;-37
2022/03/16 05:07:46;;;;;;;30.80;15.13;;;5.80;99.90;;;;;;5004996;28;20025;-40
2022/03/16 05:10:11;;;;;;;28.63;14.10;;;5.80;99.90;;;;;;4999689;28;20022;-39
2022/03/16 05:12:41;;;;;;;31.08;14.85;;;5.80;99.90;;;;;;5006810;28;20097;-40
2022/03/16 05:15:09;;;;;;;26.65;13.00;;;5.70;99.90;;;;;;5000658;28;20087;-39
2022/03/16 05:17:38;;;;;;;31.40;15.03;;;5.70;99.90;;;;;;5002772;28;20050;-40
2022/03/16 05:20:04;;;;;;;30.27;14.38;;;5.70;99.90;;;;;;5007886;28;20316;-39
2022/03/16 05:22:30;;;;;;;33.92;15.48;;;5.60;99.90;;;;;;5005601;28;21018;-36
2022/03/16 05:24:56;;;;;;;31.08;13.98;;;5.60;99.90;;;;;;5003707;28;20045;-39
2022/03/16 05:27:21;;;;;;;29.35;13.63;;;5.60;99.90;;;;;;5004620;28;20125;-37
2022/03/16 05:29:47;;;;;;;29.70;14.75;;;5.60;99.90;;;;;;5005532;28;20034;-37
2022/03/16 05:32:14;;;;;;;30.75;14.95;;;5.50;99.90;;;;;;5006198;28;20065;-37
2022/03/16 05:34:40;;;;;;;33.13;15.20;;;5.50;99.90;;;;;;4999490;28;20438;-39
2022/03/16 05:37:06;;;;;;;31.45;14.52;;;5.50;99.90;;;;;;5001233;28;20038;-39
2022/03/16 05:39:32;;;;;;;30.30;14.98;;;5.50;99.90;;;;;;4998800;28;20446;-39
2022/03/16 05:42:00;;;;;;;31.67;15.05;;;5.50;99.90;;;;;;5002436;28;20040;-37
2022/03/16 05:44:26;;;;;;;29.05;14.23;;;5.50;99.90;;;;;;4999931;28;20030;-39
2022/03/16 05:46:53;;;;;;;32.08;15.18;;;5.50;99.90;;;;;;5003176;28;20526;-36
2022/03/16 05:49:18;;;;;;;26.77;13.80;;;5.50;99.90;;;;;;4999237;28;20029;-40
2022/03/16 05:51:44;;;;;;;30.15;14.23;;;5.50;99.90;;;;;;5000744;28;20391;-37
2022/03/16 05:54:10;;;;;;;26.38;12.95;;;5.50;99.90;;;;;;5005260;28;20491;-39
2022/03/16 05:56:35;;;;;;;30.15;14.57;;;5.50;99.90;;;;;;5002717;28;20415;-36
2022/03/16 05:59:01;;;;;;;28.02;12.88;;;5.50;99.90;;;;;;5000061;28;20037;-37
2022/03/16 06:01:27;;;;;;;27.23;13.82;;;5.50;99.90;;;;;;5006497;28;20038;-40
2022/03/16 06:03:53;;;;;;;31.10;13.15;;;5.50;99.90;;;;;;5005609;28;20045;-38
2022/03/16 06:06:20;;;;;;;26.95;13.60;;;5.60;99.90;;;;;;5005130;28;21452;-37
2022/03/16 06:08:46;;;;;;;25.60;12.30;;;5.60;99.90;;;;;;5005661;28;20449;-39
2022/03/16 06:11:11;;;;;;;28.50;13.77;;;5.60;99.90;;;;;;5005152;28;20025;-37
2022/03/16 06:13:37;;;;;;;23.95;12.50;;;5.60;99.90;;;;;;5006250;28;20034;-37
2022/03/16 06:16:03;;;;;;;24.65;11.95;;;5.60;99.90;;;;;;5003547;28;20034;-37
2022/03/16 06:18:29;;;;;;;25.83;12.93;;;5.60;99.90;;;;;;5003484;28;20149;-39
2022/03/16 06:20:54;;;;;;;25.00;12.05;;;5.60;99.90;;;;;;5008264;28;20038;-37
2022/03/16 06:23:20;;;;;;;25.90;12.35;;;5.50;99.90;;;;;;5006824;28;20026;-36
2022/03/16 06:25:45;;;;;;;28.85;12.65;;;5.60;99.90;;;;;;5006436;28;20110;-38
2022/03/16 06:28:11;;;;;;;28.52;12.93;;;5.60;99.90;;;;;;5002904;28;20774;-37
2022/03/16 06:30:37;;;;;;;29.17;13.35;;;5.60;99.90;;;;;;4997882;28;21820;-38
2022/03/16 06:33:04;;;;;;;25.85;12.70;;;5.60;99.90;;;;;;4997885;28;20096;-37
2022/03/16 06:35:30;;;;;;;26.33;11.68;;;5.60;99.90;;;;;;5000392;28;20026;-37
2022/03/16 06:37:55;;;;;;;27.15;12.35;;;5.60;99.90;;;;;;5008903;28;20044;-37
2022/03/16 06:40:21;;;;;;;30.80;13.23;;;5.60;99.90;;;;;;5001896;28;20030;-36
2022/03/16 06:42:49;;;;;;;24.52;11.40;;;5.60;99.90;;;;;;5006195;28;20102;-37
2022/03/16 06:45:16;;;;;;;26.95;11.65;;;5.60;99.90;;;;;;5003621;28;20041;-38
2022/03/16 06:47:42;;;;;;;24.25;11.50;;;5.60;99.90;;;;;;5002259;28;20022;-38
2022/03/16 06:50:08;;;;;;;22.27;11.60;;;5.70;99.90;;;;;;5002353;28;20077;-38
2022/03/16 06:52:34;;;;;;;28.02;11.63;;;5.70;99.90;;;;;;5002606;28;20036;-37
2022/03/16 06:54:59;;;;;;;25.00;12.45;;;5.70;99.90;;;;;;5009204;28;20053;-39
2022/03/16 06:57:25;;;;;;;24.52;12.98;;;5.70;99.90;;;;;;5000468;28;20115;-39
2022/03/16 06:59:50;;;;;;;24.27;12.60;;;5.70;99.90;;;;;;5000081;28;20034;-37
2022/03/16 07:02:17;;;;;;;22.38;11.65;;;5.70;99.90;;;;;;4983213;28;20033;-38
2022/03/16 07:04:42;;;;;;;25.17;11.88;;;5.70;99.90;;;;;;5003796;28;20038;-36
2022/03/16 07:07:08;;;;;;;24.77;11.82;;;5.70;99.90;;;;;;5003598;28;20022;-38
2022/03/16 07:09:33;;;;;;;25.05;12.23;;;5.60;99.90;;;;;;5007463;28;20038;-37
2022/03/16 07:11:59;;;;;;;29.38;13.10;;;5.70;99.90;;;;;;5003110;28;20026;-38
2022/03/16 07:14:31;;;;;;;23.52;12.15;;;5.70;99.90;;;;;;4980260;28;20065;-38
2022/03/16 07:16:57;;;;;;;23.10;11.18;;;5.70;99.90;;;;;;4998030;28;20955;-37
2022/03/16 07:19:23;;;;;;;29.08;13.07;;;5.70;99.90;;;;;;4999360;28;20073;-39
2022/03/16 07:21:48;;;;;;;26.63;13.05;;;5.70;99.90;;;;;;5000681;28;20161;-36
2022/03/16 07:24:14;;;;;;;29.65;13.30;;;5.80;99.90;;;;;;4999304;28;20025;-36
2022/03/16 07:26:39;;;;;;;30.70;14.73;;;5.80;99.90;;;;;;4998488;28;20058;-37
2022/03/16 07:29:06;;;;;;;30.58;14.52;;;5.80;99.90;;;;;;4999668;28;20028;-39
2022/03/16 07:31:32;;;;;;;33.10;13.85;;;5.80;99.90;;;;;;4996335;28;20407;-38
2022/03/16 07:33:57;;;;;;;26.55;13.18;;;5.80;99.90;;;;;;4996328;28;20080;-38
2022/03/16 07:36:23;;;;;;;28.00;13.35;;;5.70;99.90;;;;;;5001191;28;20045;-38
2022/03/16 07:38:49;;;;;;;28.10;13.40;;;5.70;99.90;;;;;;4996079;28;20547;-40
2022/03/16 07:41:15;;;;;;;29.83;13.52;;;5.80;99.90;;;;;;4997489;28;20125;-38
2022/03/16 07:43:41;;;;;;;26.42;14.02;;;5.80;99.90;;;;;;4995571;28;20072;-36
2022/03/16 07:46:07;;;;;;;27.02;13.95;;;5.80;99.90;;;;;;4993050;28;20431;-37
2022/03/16 07:48:34;;;;;;;27.48;13.32;;;5.70;99.90;;;;;;4995431;28;20037;-38
2022/03/16 07:51:01;;;;;;;26.73;13.05;;;5.70;99.90;;;;;;4995403;28;20443;-38
2022/03/16 07:53:27;;;;;;;28.63;13.23;;;5.70;99.90;;;;;;4995223;28;20037;-39
2022/03/16 07:55:56;;;;;;;28.15;13.43;;;5.80;99.90;;;;;;4996121;28;20049;-40
2022/03/16 07:58:22;;;;;;;31.58;14.02;;;5.80;99.90;;;;;;4993933;28;20492;-40
2022/03/16 08:00:48;;;;;;;35.13;15.20;;;5.80;99.90;;;;;;4995605;28;20084;-39
2022/03/16 08:03:13;;;;;;;28.98;13.18;;;5.80;99.90;;;;;;4997192;28;20471;-37
2022/03/16 08:05:39;;;;;;;27.20;13.27;;;5.80;99.90;;;;;;4997473;28;20037;-37
2022/03/16 08:08:05;;;;;;;25.30;13.30;;;5.90;99.90;;;;;;4999585;28;20049;-39
2022/03/16 08:10:31;;;;;;;29.55;13.98;;;5.80;99.90;;;;;;4999703;28;20479;-40
2022/03/16 08:12:57;;;;;;;29.88;14.30;;;5.90;99.90;;;;;;4981224;28;20037;-37
2022/03/16 08:15:23;;;;;;;29.77;14.63;;;6.00;99.90;;;;;;4998924;28;20041;-38
2022/03/16 08:17:49;;;;;;;29.65;15.02;;;6.00;99.90;;;;;;4997044;28;20076;-39
2022/03/16 08:20:14;;;;;;;27.80;14.05;;;6.00;99.90;;;;;;4998196;28;20625;-40
2022/03/16 08:22:40;;;;;;;29.25;14.13;;;6.00;99.90;;;;;;5000328;28;20049;-37
2022/03/16 08:25:08;;;;;;;27.85;13.88;;;6.10;99.90;;;;;;4996053;28;20088;-37
2022/03/16 08:27:35;;;;;;;27.45;14.02;;;6.10;99.90;;;;;;4997110;28;20062;-38
2022/03/16 08:30:01;;;;;;;25.98;13.00;;;6.10;99.90;;;;;;4994984;28;20029;-37
2022/03/16 08:32:26;;;;;;;29.55;14.35;;;6.10;99.90;;;;;;4995532;28;20041;-39
2022/03/16 08:34:52;;;;;;;33.75;15.07;;;6.20;99.90;;;;;;4997639;28;20116;-38
2022/03/16 08:37:18;;;;;;;30.63;13.68;;;6.20;99.90;;;;;;4995543;28;20044;-38
2022/03/16 08:39:45;;;;;;;26.88;12.77;;;6.20;99.90;;;;;;4996284;28;20117;-38
2022/03/16 08:42:12;;;;;;;30.70;15.15;;;6.30;99.90;;;;;;4999431;28;20033;-37
2022/03/16 08:44:38;;;;;;;26.13;12.95;;;6.30;99.90;;;;;;4997029;28;20590;-38
2022/03/16 08:47:05;;;;;;;28.38;14.93;;;6.40;99.90;;;;;;4998927;28;20481;-37
2022/03/16 08:49:30;;;;;;;28.38;13.57;;;6.40;99.90;;;;;;4997034;28;20026;-37
2022/03/16 08:51:57;;;;;;;28.13;13.05;;;6.50;99.90;;;;;;5003415;28;20048;-39
2022/03/16 08:54:23;;;;;;;28.52;14.32;;;6.50;99.90;;;;;;4999438;28;20029;-38
2022/03/16 08:56:50;;;;;;;25.95;13.20;;;6.60;99.90;;;;;;4996063;28;20044;-37
2022/03/16 08:59:15;;;;;;;29.10;13.95;;;6.70;99.90;;;;;;4997995;28;20029;-40
2022/03/16 09:01:41;;;;;;;29.30;14.60;;;6.70;99.90;;;;;;4998034;28;20513;-37
2022/03/16 09:04:07;;;;;;;27.60;13.82;;;6.80;99.90;;;;;;4996895;28;20046;-37
2022/03/16 09:06:32;;;;;;;26.42;13.82;;;6.80;99.90;;;;;;4998802;28;20034;-38
2022/03/16 09:08:58;;;;;;;29.55;14.02;;;6.80;99.90;;;;;;4997713;28;20037;-40
2022/03/16 09:11:24;;;;;;;32.55;14.35;;;6.80;99.90;;;;;;4997676;28;20065;-37
2022/03/16 09:13:50;;;;;;;30.23;14.65;;;6.70;99.90;;;;;;4999611;28;20041;-39
2022/03/16 09:16:15;;;;;;;30.80;14.52;;;6.70;99.90;;;;;;5002313;28;20029;-40
2022/03/16 09:18:41;;;;;;;29.50;14.95;;;6.70;99.90;;;;;;5004347;28;20057;-38
2022/03/16 09:21:07;;;;;;;31.67;14.75;;;6.80;99.90;;;;;;4999651;28;20042;-38
2022/03/16 09:23:32;;;;;;;28.30;14.57;;;7.00;99.90;;;;;;4981380;28;20125;-37
2022/03/16 09:26:00;;;;;;;29.90;15.07;;;7.00;99.90;;;;;;5004082;28;20034;-39
2022/03/16 09:28:26;;;;;;;28.83;14.13;;;6.90;99.90;;;;;;4981744;28;20029;-39
2022/03/16 09:30:52;;;;;;;30.52;14.98;;;6.90;99.90;;;;;;5000361;28;20663;-37
2022/03/16 09:33:18;;;;;;;37.78;16.42;;;7.00;99.90;;;;;;5003557;28;20022;-38
2022/03/16 09:35:44;;;;;;;30.88;15.02;;;7.10;99.90;;;;;;5000620;28;20148;-37
2022/03/16 09:38:12;;;;;;;28.45;14.40;;;7.10;99.90;;;;;;5000432;28;21240;-39
2022/03/16 09:40:38;;;;;;;29.10;14.27;;;7.00;99.90;;;;;;5000231;28;20036;-37
2022/03/16 09:43:10;;;;;;;27.27;13.15;;;7.00;99.90;;;;;;5001378;28;20113;-37
2022/03/16 09:45:52;;;;;;;29.52;14.00;;;6.90;99.90;;;;;;5000403;28;20113;-40
2022/03/16 09:48:19;;;;;;;28.33;13.88;;;7.00;99.90;;;;;;4999757;28;20518;-39
2022/03/16 09:50:45;;;;;;;33.00;15.63;;;7.00;99.90;;;;;;5000875;28;20478;-37
2022/03/16 09:53:13;;;;;;;29.00;14.32;;;7.10;99.90;;;;;;5000005;28;20118;-40
2022/03/16 09:55:39;;;;;;;29.45;15.73;;;7.00;99.90;;;;;;4998392;28;20058;-40
2022/03/16 09:58:05;;;;;;;28.58;13.82;;;7.00;99.90;;;;;;4982600;28;20034;-38
2022/03/16 10:00:31;;;;;;;37.45;17.10;;;7.00;99.90;;;;;;4998381;28;20092;-37
2022/03/16 10:03:02;;;;;;;35.25;15.38;;;7.10;99.90;;;;;;5000375;28;20041;-40
2022/03/16 10:05:29;;;;;;;31.10;15.25;;;7.10;99.90;;;;;;4998583;28;20144;-36
2022/03/16 10:07:55;;;;;;;34.28;15.98;;;7.20;99.90;;;;;;4999894;28;20203;-36
2022/03/16 10:13:23;;;;;;;34.37;15.93;;;7.20;99.90;;;;;;5000454;28;20049;-36
2022/03/16 10:15:49;;;;;;;34.97;16.42;;;7.20;99.90;;;;;;4999834;28;20029;-39
2022/03/16 10:18:16;;;;;;;29.52;13.07;;;7.20;99.90;;;;;;4998507;28;20073;-39
2022/03/16 10:20:43;;;;;;;28.40;14.30;;;7.20;99.90;;;;;;5000523;28;20029;-40
2022/03/16 10:23:20;;;;;;;34.63;16.30;;;7.30;99.90;;;;;;4997991;28;20063;-38
2022/03/16 10:25:51;;;;;;;32.50;14.98;;;7.30;99.90;;;;;;5004123;28;20030;-37
2022/03/16 10:28:30;;;;;;;30.00;14.95;;;7.30;99.90;;;;;;4997877;28;20033;-37
2022/03/16 10:31:05;;;;;;;28.55;15.23;;;7.30;99.90;;;;;;4999181;28;20034;-37
2022/03/16 10:33:50;;;;;;;30.92;14.52;;;7.30;99.90;;;;;;4998932;28;20088;-37
2022/03/16 10:36:18;;;;;;;29.65;14.98;;;7.30;99.90;;;;;;4997001;28;20044;-39
2022/03/16 10:38:49;;;;;;;29.83;13.83;;;7.30;99.90;;;;;;4999480;28;20041;-37
2022/03/16 10:47:16;;;;;;;26.75;13.57;;;7.30;99.90;;;;;;4999321;28;20052;-37
2022/03/16 10:49:43;;;;;;;29.35;14.48;;;7.40;99.90;;;;;;4998644;28;20026;-38
2022/03/16 10:52:20;;;;;;;30.77;15.68;;;7.40;99.90;;;;;;4998851;28;20116;-37
2022/03/16 10:54:48;;;;;;;30.13;14.02;;;7.50;99.90;;;;;;4998322;28;20542;-37
2022/03/16 10:57:14;;;;;;;33.22;14.35;;;7.50;99.90;;;;;;5001527;28;20038;-37
2022/03/16 10:59:44;;;;;;;28.42;14.10;;;7.60;99.90;;;;;;5000552;28;20386;-37
2022/03/16 11:02:14;;;;;;;31.33;14.95;;;7.80;99.90;;;;;;4997758;28;20034;-37
2022/03/16 11:04:42;;;;;;;27.95;12.82;;;7.70;99.90;;;;;;5000745;28;20026;-38
2022/03/16 11:07:08;;;;;;;28.38;14.85;;;7.70;99.90;;;;;;4998892;28;20037;-39
2022/03/16 11:09:35;;;;;;;28.70;13.75;;;7.70;99.90;;;;;;5002296;28;20495;-38
2022/03/16 11:14:51;;;;;;;28.40;13.63;;;7.70;99.90;;;;;;4999231;28;20123;-36
2022/03/16 11:17:18;;;;;;;31.42;14.38;;;7.80;99.90;;;;;;4998274;28;20411;-37
2022/03/16 11:19:47;;;;;;;28.33;14.02;;;7.90;99.90;;;;;;4997588;28;20045;-39
2022/03/16 11:22:25;;;;;;;;;;;8.00;99.90;;;;;;5002297;28;20045;-38
2022/03/16 11:25:21;;;;;;;25.90;12.95;;;8.00;99.90;;;;;;4999777;28;19917;-37
2022/03/16 11:27:52;;;;;;;29.63;13.73;;;8.00;99.90;;;;;;4994852;28;20045;-40
2022/03/16 11:30:33;;;;;;;20.63;11.30;;;8.20;99.90;;;;;;5001770;28;20022;-38
2022/03/16 11:33:15;;;;;;;24.42;12.52;;;8.20;99.90;;;;;;4999184;28;20331;-37
2022/03/16 11:35:44;;;;;;;25.25;12.30;;;8.20;99.90;;;;;;4998529;28;20058;-37
2022/03/16 11:38:15;;;;;;;22.58;11.35;;;8.10;99.90;;;;;;4998775;28;20060;-37
2022/03/16 11:40:44;;;;;;;19.88;10.63;;;8.10;99.90;;;;;;5001431;28;20037;-39
2022/03/16 11:43:12;;;;;;;23.27;12.48;;;8.10;99.90;;;;;;4999295;28;20072;-37
2022/03/16 11:45:44;;;;;;;25.17;12.60;;;8.10;99.90;;;;;;4999287;28;22139;-38
2022/03/16 11:51:08;;;;;;;22.50;12.38;;;8.10;99.90;;;;;;5000538;28;20030;-38
2022/03/16 11:53:46;;;;;;;24.02;11.88;;;8.10;99.90;;;;;;4997893;28;20095;-40
2022/03/16 11:56:24;;;;;;;24.37;11.37;;;8.10;99.90;;;;;;4999240;28;20486;-37
2022/03/16 11:58:54;;;;;;;22.75;12.57;;;8.20;99.90;;;;;;4998238;28;20576;-38
2022/03/16 12:01:27;;;;;;;22.60;11.32;;;8.40;99.90;;;;;;4999269;28;20088;-40
2022/03/16 12:04:12;;;;;;;22.80;11.45;;;8.50;99.90;;;;;;4998342;28;20026;-36
2022/03/16 12:07:05;;;;;;;27.90;12.20;;;8.70;99.90;;;;;;5003163;28;20029;-37
2022/03/16 12:09:33;;;;;;;24.92;11.75;;;9.00;99.90;;;;;;5005104;28;20112;-38
2022/03/16 12:14:58;;;;;;;17.25;10.00;;;9.10;99.90;;;;;;5006836;28;19925;-38
2022/03/16 12:17:23;;;;;;;20.10;10.20;;;9.20;99.90;;;;;;5003563;28;20041;-40
2022/03/16 12:20:10;;;;;;;18.60;10.57;;;9.10;99.90;;;;;;5004868;28;20038;-37
2022/03/16 12:22:48;;;;;;;22.38;11.45;;;8.80;99.90;;;;;;5002409;28;20120;-37
2022/03/16 12:25:26;;;;;;;19.95;10.60;;;8.70;99.90;;;;;;5001317;28;20054;-37
2022/03/16 12:31:15;;;;;;;16.83;9.75;;;8.80;99.90;;;;;;5002722;28;20083;-37
2022/03/16 12:33:50;;;;;;;20.65;10.88;;;8.80;99.90;;;;;;4973180;28;20026;-39
2022/03/16 12:36:22;;;;;;;22.92;11.15;;;8.80;99.90;;;;;;5004676;28;20026;-37
2022/03/16 12:38:50;;;;;;;19.25;10.93;;;8.90;99.90;;;;;;5002319;28;20121;-39
2022/03/16 12:44:04;;;;;;;17.25;10.20;;;9.20;99.90;;;;;;5002620;28;20068;-36
2022/03/16 12:46:33;;;;;;;17.97;9.63;;;9.20;99.90;;;;;;5002173;28;20025;-37
2022/03/16 12:49:06;;;;;;;19.00;10.02;;;9.20;99.90;;;;;;5000442;28;21562;-37
2022/03/16 12:51:37;;;;;;;20.70;10.30;;;9.20;99.90;;;;;;5002419;28;20045;-37
2022/03/16 12:54:05;;;;;;;15.45;9.45;;;9.20;99.90;;;;;;5001868;28;20030;-36
2022/03/16 12:56:32;;;;;;;16.17;10.27;;;9.30;99.90;;;;;;4985227;28;20140;-37
2022/03/16 12:58:57;;;;;;;17.05;10.27;;;9.40;99.90;;;;;;5006707;28;20041;-36
2022/03/16 13:01:25;;;;;;;18.15;10.30;;;9.50;99.90;;;;;;5008978;28;20033;-38
2022/03/16 13:04:01;;;;;;;18.80;10.20;;;9.60;99.90;;;;;;5007781;28;20521;-38